Results For
MACHO MTB RACE

WOODBURY, NY 11797
Timing Services provided by . Questions About Results? Get in touch!

Use the filters boxes below to search results.

Interactive Version
Place Bib Name                Age Division       Division Chip    Pace (from gun) Lap 1 SPLIT Lap 2 SPLIT 
                                                 Place    Time                                            
===== === =================== === ============== ======== ======= =============== =========== =========== 
1     48  Anthony MAZZARA     48  Top3 Male      1        1:02:04 11.6 m/hr       0:30:33     0:31:30     
2     97  Brendan MARTIN      17  Top3 Male      2        1:03:34 11.3 m/hr       0:31:11     0:32:23     
3     66  Sebastian VENEGAS   32  Top3 Male      3        1:04:40 11.1 m/hr       0:31:45     0:32:55     
4     85  Drew ARMSTRONG      41  M 35-49        1        1:05:15 11.0 m/hr       0:32:03     0:33:12     
5     71  Michael O'ROURKE    39  M 35-49        2        1:05:30 11.0 m/hr       0:32:20     0:33:10     
6     72  Craig STANCO        48  M 35-49        3        1:07:14 10.7 m/hr       0:33:34     0:33:39     
7     68  Daniel CHEUNG       44  M 35-49        4        1:07:34 10.7 m/hr       0:33:23     0:34:11     
8     74  Christopher BRISTOL 36  M 35-49        5        1:08:07 10.6 m/hr       0:33:24     0:34:43     
9     9   Teodoro PABELLO     29  M 19-34        1        1:08:20 10.5 m/hr       0:33:13     0:35:06     
10    2   Jp SCHIEFELE        27  M 19-34        2        1:09:11 10.4 m/hr       0:34:08     0:35:02     
11    40  Arthur HERRMANN     59  M 50-64        1        1:09:25 10.4 m/hr       0:34:10     0:35:14     
12    95  Michael SAFFRAN     57  M 50-64        2        1:09:48 10.3 m/hr       0:34:36     0:35:12     
13    70  Anthony DEMILLIO    53  M 50-64        3        1:10:30 10.2 m/hr       0:34:34     0:35:55     
14    75  Cary POTTER         58  M 50-64        4        1:10:37 10.2 m/hr       0:34:59     0:35:38     
15    69  Eder HIDALGO        38  M 35-49        6        1:10:45 10.2 m/hr       0:35:39     0:35:05     
16    38  Todd ROSEMAN        50  M 50-64        5        1:10:51 10.2 m/hr       0:35:56     0:34:54     
17    61  Gregory TCHABOVSKY  43  M 35-49        7        1:11:58 10.0 m/hr       0:33:33     0:38:24     
18    94  Juan ROA            37  M 35-49        8        1:11:58 10.0 m/hr       0:34:56     0:37:02     
19    77  Joseph DIGREGORIO   32  M 19-34        3        1:12:06 10.0 m/hr       0:35:22     0:36:44     
20    28  Paul GOOCH          49  M 35-49        9        1:12:13 10.0 m/hr       0:35:58     0:36:15     
21    50  Coy LIM             46  M 35-49        10       1:12:40 9.9 m/hr        0:36:23     0:36:17     
22    73  Dan ARNSTEIN        44  M 35-49        11       1:13:31 9.8 m/hr        0:35:57     0:37:34     
23    44  John LASTORINO      54  M 50-64        6        1:14:12 9.7 m/hr        0:35:53     0:38:19     
24    78  Brian CARBONETTE    33  M 19-34        4        1:14:14 9.7 m/hr        0:36:36     0:37:37     
25    17  Levi REYES          53  M 50-64        7        1:14:50 9.6 m/hr        0:35:45     0:39:04     
26    52  Todd GAGE           52  M 50-64        8        1:15:20 9.6 m/hr        0:35:48     0:39:31     
27    83  Dale CORNETTA       27  M 19-34        5        1:15:21 9.6 m/hr        0:37:39     0:37:42     
28    76  Henry HAGER         44  M 35-49        12       1:16:24 9.4 m/hr        0:36:32     0:39:52     
29    86  Christian VALENCIA  50  M 50-64        9        1:17:35 9.3 m/hr        0:36:34     0:41:00     
30    96  Robert MARTINEZ     45  M 35-49        13       1:17:44 9.3 m/hr        0:38:36     0:39:07     
31    87  Anthony ZITO        35  M 35-49        14       1:22:07 8.8 m/hr        0:39:30     0:42:36     
32    100 William REGAN       48  M 35-49        15       1:23:35 8.6 m/hr        0:41:23     0:42:12     
33    67  Henry SERRA         51  M 50-64        10       1:24:22 8.5 m/hr        0:39:10     0:45:12     
34    99  James REGAN         44  M 35-49        16       1:24:54 8.5 m/hr        0:42:00     0:42:53     
35    49  Adam GODINEZ        31  M Single Speed 1        1:30:03 8.0 m/hr        0:43:52     0:46:11     
36    84  Craig ATELLA        38  M 35-49        17       1:30:56 7.9 m/hr        0:42:41     0:48:14     
37    35  Dmitri LYALIKOV     20  M 19-34        6        1:31:21 7.9 m/hr        0:43:07     0:48:14     
38    56  William ANDERSON    44  M 35-49        18       1:32:32 7.8 m/hr        0:45:36     0:46:55     
39    65  Ahmed MAREI         30  M 19-34        7        1:44:25 6.9 m/hr        0:43:33     1:00:52     
40    36  Vlad LYALIKOV       47  M 35-49        19       1:46:12 6.8 m/hr        0:50:59     0:55:13     
41    4   Luis ESPAILLAT      31  M 19-34        8        1:47:22 6.7 m/hr        0:47:21     1:00:01     
42    14  Jordan WEINSTEIN    37  M 35-49        20       1:55:38 6.2 m/hr        0:51:40     1:03:57     
43    55  Melissa ECHEVERRI   40  Top3 Female    1        2:20:11 5.1 m/hr        1:03:24     1:16:46     


M 19-34
Place Name              Bib Age Overall Time    
===== ================= === === ======= ======= 
1     Teodoro PABELLO   9   29  9       1:08:20 
2     Jp SCHIEFELE      2   27  10      1:09:11 
3     Joseph DIGREGORIO 77  32  19      1:12:06 
4     Brian CARBONETTE  78  33  24      1:14:14 
5     Dale CORNETTA     83  27  27      1:15:21 


M 35-49
Place Name                Bib Age Overall Time    
===== =================== === === ======= ======= 
1     Drew ARMSTRONG      85  41  4       1:05:15 
2     Michael O'ROURKE    71  39  5       1:05:30 
3     Craig STANCO        72  48  6       1:07:14 
4     Daniel CHEUNG       68  44  7       1:07:34 
5     Christopher BRISTOL 74  36  8       1:08:07 


M 50-64
Place Name             Bib Age Overall Time    
===== ================ === === ======= ======= 
1     Arthur HERRMANN  40  59  11      1:09:25 
2     Michael SAFFRAN  95  57  12      1:09:48 
3     Anthony DEMILLIO 70  53  13      1:10:30 
4     Cary POTTER      75  58  14      1:10:37 
5     Todd ROSEMAN     38  50  16      1:10:51 


M Single Speed
Place Name         Bib Age Overall Time    
===== ============ === === ======= ======= 
1     Adam GODINEZ 49  31  35      1:30:03 


Top3 Male
Place Name              Bib Age Overall Time    
===== ================= === === ======= ======= 
1     Anthony MAZZARA   48  48  1       1:02:04 
2     Brendan MARTIN    97  17  2       1:03:34 
3     Sebastian VENEGAS 66  32  3       1:04:40 


Top3 Female
Place Name              Bib Age Overall Time    
===== ================= === === ======= ======= 
1     Melissa ECHEVERRI 55  40  43      2:20:11 

Additional results can be found at http://www.PRTiming.com.

If you continue to use this site, you consent to use all cookies. We use cookies to offer you a better browsing experience. Read how we use cookies and how you can control them by visiting our Privacy Policy.

If you continue to use this site, you consent to use all cookies.